sensor_id;sensor_type;location;lat;lon;timestamp;temperature;humidity
10411;DHT22;5251;52.112;8.606;2023-09-18T00:01:11;21.10;99.90
10411;DHT22;5251;52.112;8.606;2023-09-18T00:03:37;21.10;99.90
10411;DHT22;5251;52.112;8.606;2023-09-18T00:06:02;21.10;99.90
10411;DHT22;5251;52.112;8.606;2023-09-18T00:08:28;21.10;99.90
10411;DHT22;5251;52.112;8.606;2023-09-18T00:10:54;21.10;99.90
10411;DHT22;5251;52.112;8.606;2023-09-18T00:13:21;21.00;99.90
10411;DHT22;5251;52.112;8.606;2023-09-18T00:15:46;21.00;99.90
10411;DHT22;5251;52.112;8.606;2023-09-18T00:18:14;21.00;99.90
10411;DHT22;5251;52.112;8.606;2023-09-18T00:20:40;21.00;99.90
10411;DHT22;5251;52.112;8.606;2023-09-18T00:23:06;21.00;99.90
10411;DHT22;5251;52.112;8.606;2023-09-18T00:25:31;21.00;99.90
10411;DHT22;5251;52.112;8.606;2023-09-18T00:27:57;21.00;99.90
10411;DHT22;5251;52.112;8.606;2023-09-18T00:30:22;21.00;99.90
10411;DHT22;5251;52.112;8.606;2023-09-18T00:32:48;21.00;99.90
10411;DHT22;5251;52.112;8.606;2023-09-18T00:35:15;21.00;99.90
10411;DHT22;5251;52.112;8.606;2023-09-18T00:37:41;21.00;99.90
10411;DHT22;5251;52.112;8.606;2023-09-18T00:40:08;21.00;99.90
10411;DHT22;5251;52.112;8.606;2023-09-18T00:42:34;20.90;99.90
10411;DHT22;5251;52.112;8.606;2023-09-18T00:45:00;20.90;99.90
10411;DHT22;5251;52.112;8.606;2023-09-18T00:47:25;20.90;99.90
10411;DHT22;5251;52.112;8.606;2023-09-18T00:49:52;20.90;99.90
10411;DHT22;5251;52.112;8.606;2023-09-18T00:52:20;20.90;99.90
10411;DHT22;5251;52.112;8.606;2023-09-18T00:54:47;20.90;99.90
10411;DHT22;5251;52.112;8.606;2023-09-18T00:57:13;20.90;99.90
10411;DHT22;5251;52.112;8.606;2023-09-18T00:59:39;20.90;99.90
10411;DHT22;5251;52.112;8.606;2023-09-18T01:02:05;20.90;99.90
10411;DHT22;5251;52.112;8.606;2023-09-18T01:04:33;20.90;99.90
10411;DHT22;5251;52.112;8.606;2023-09-18T01:06:59;20.90;99.90
10411;DHT22;5251;52.112;8.606;2023-09-18T01:09:31;20.90;99.90
10411;DHT22;5251;52.112;8.606;2023-09-18T01:15:21;20.90;99.90
10411;DHT22;5251;52.112;8.606;2023-09-18T01:17:37;20.80;99.90
10411;DHT22;5251;52.112;8.606;2023-09-18T01:20:10;20.80;99.90
10411;DHT22;5251;52.112;8.606;2023-09-18T01:22:36;20.90;99.90
10411;DHT22;5251;52.112;8.606;2023-09-18T01:25:02;20.80;99.90
10411;DHT22;5251;52.112;8.606;2023-09-18T01:27:28;20.80;99.90
10411;DHT22;5251;52.112;8.606;2023-09-18T01:29:53;20.80;99.90
10411;DHT22;5251;52.112;8.606;2023-09-18T01:32:19;20.80;99.90
10411;DHT22;5251;52.112;8.606;2023-09-18T01:34:48;20.80;99.90
10411;DHT22;5251;52.112;8.606;2023-09-18T01:37:17;20.80;99.90
10411;DHT22;5251;52.112;8.606;2023-09-18T01:39:46;20.70;99.90
10411;DHT22;5251;52.112;8.606;2023-09-18T01:42:12;20.80;99.90
10411;DHT22;5251;52.112;8.606;2023-09-18T01:44:38;20.80;99.90
10411;DHT22;5251;52.112;8.606;2023-09-18T01:47:06;20.70;99.90
10411;DHT22;5251;52.112;8.606;2023-09-18T01:49:33;20.70;99.90
10411;DHT22;5251;52.112;8.606;2023-09-18T01:52:00;20.70;99.90
10411;DHT22;5251;52.112;8.606;2023-09-18T01:54:26;20.70;99.90
10411;DHT22;5251;52.112;8.606;2023-09-18T01:56:52;20.70;99.90
10411;DHT22;5251;52.112;8.606;2023-09-18T01:59:19;20.70;99.90
10411;DHT22;5251;52.112;8.606;2023-09-18T02:01:44;20.70;99.90
10411;DHT22;5251;52.112;8.606;2023-09-18T02:04:10;20.70;99.90
10411;DHT22;5251;52.112;8.606;2023-09-18T02:06:36;20.70;99.90
10411;DHT22;5251;52.112;8.606;2023-09-18T02:09:02;20.70;99.90
10411;DHT22;5251;52.112;8.606;2023-09-18T02:11:29;20.70;99.90
10411;DHT22;5251;52.112;8.606;2023-09-18T02:13:54;20.70;99.90
10411;DHT22;5251;52.112;8.606;2023-09-18T02:16:20;20.70;99.90
10411;DHT22;5251;52.112;8.606;2023-09-18T02:18:49;20.70;99.90
10411;DHT22;5251;52.112;8.606;2023-09-18T02:21:21;20.70;99.90
10411;DHT22;5251;52.112;8.606;2023-09-18T02:23:51;20.70;99.90
10411;DHT22;5251;52.112;8.606;2023-09-18T02:26:20;20.70;99.90
10411;DHT22;5251;52.112;8.606;2023-09-18T02:28:46;20.70;99.90
10411;DHT22;5251;52.112;8.606;2023-09-18T02:31:11;20.70;99.90
10411;DHT22;5251;52.112;8.606;2023-09-18T02:33:38;20.70;99.90
10411;DHT22;5251;52.112;8.606;2023-09-18T02:36:04;20.70;99.90
10411;DHT22;5251;52.112;8.606;2023-09-18T02:38:29;20.70;99.90
10411;DHT22;5251;52.112;8.606;2023-09-18T02:40:56;20.70;99.90
10411;DHT22;5251;52.112;8.606;2023-09-18T02:43:23;20.70;99.90
10411;DHT22;5251;52.112;8.606;2023-09-18T02:45:49;20.70;99.90
10411;DHT22;5251;52.112;8.606;2023-09-18T02:48:15;20.70;99.90
10411;DHT22;5251;52.112;8.606;2023-09-18T02:50:41;20.80;99.90
10411;DHT22;5251;52.112;8.606;2023-09-18T02:53:08;20.70;99.90
10411;DHT22;5251;52.112;8.606;2023-09-18T02:55:37;20.80;99.90
10411;DHT22;5251;52.112;8.606;2023-09-18T02:58:02;20.70;99.90
10411;DHT22;5251;52.112;8.606;2023-09-18T03:00:28;20.80;99.90
10411;DHT22;5251;52.112;8.606;2023-09-18T03:02:54;20.80;99.90
10411;DHT22;5251;52.112;8.606;2023-09-18T03:05:19;20.70;99.90
10411;DHT22;5251;52.112;8.606;2023-09-18T03:07:45;20.70;99.90
10411;DHT22;5251;52.112;8.606;2023-09-18T03:10:11;20.70;99.90
10411;DHT22;5251;52.112;8.606;2023-09-18T03:12:40;20.80;99.90
10411;DHT22;5251;52.112;8.606;2023-09-18T03:15:06;20.70;99.90
10411;DHT22;5251;52.112;8.606;2023-09-18T03:17:32;20.80;99.90
10411;DHT22;5251;52.112;8.606;2023-09-18T03:19:57;20.70;99.90
10411;DHT22;5251;52.112;8.606;2023-09-18T03:22:23;20.70;99.90
10411;DHT22;5251;52.112;8.606;2023-09-18T03:24:48;20.70;99.90
10411;DHT22;5251;52.112;8.606;2023-09-18T03:27:15;20.70;99.90
10411;DHT22;5251;52.112;8.606;2023-09-18T03:29:40;20.70;99.90
10411;DHT22;5251;52.112;8.606;2023-09-18T03:32:06;20.70;99.90
10411;DHT22;5251;52.112;8.606;2023-09-18T03:34:31;20.70;99.90
10411;DHT22;5251;52.112;8.606;2023-09-18T03:36:57;20.70;99.90
10411;DHT22;5251;52.112;8.606;2023-09-18T03:39:22;20.70;99.90
10411;DHT22;5251;52.112;8.606;2023-09-18T03:41:48;20.70;99.90
10411;DHT22;5251;52.112;8.606;2023-09-18T03:44:14;20.70;99.90
10411;DHT22;5251;52.112;8.606;2023-09-18T03:46:41;20.70;99.90
10411;DHT22;5251;52.112;8.606;2023-09-18T03:49:07;20.70;99.90
10411;DHT22;5251;52.112;8.606;2023-09-18T03:51:32;20.80;99.90
10411;DHT22;5251;52.112;8.606;2023-09-18T03:53:58;20.80;99.90
10411;DHT22;5251;52.112;8.606;2023-09-18T03:56:24;20.80;99.90
10411;DHT22;5251;52.112;8.606;2023-09-18T03:58:49;20.80;99.90
10411;DHT22;5251;52.112;8.606;2023-09-18T04:01:15;20.90;99.90
10411;DHT22;5251;52.112;8.606;2023-09-18T04:03:41;20.80;99.90
10411;DHT22;5251;52.112;8.606;2023-09-18T04:06:07;20.80;99.90
10411;DHT22;5251;52.112;8.606;2023-09-18T04:08:33;20.90;99.90
10411;DHT22;5251;52.112;8.606;2023-09-18T04:10:58;21.00;99.90
10411;DHT22;5251;52.112;8.606;2023-09-18T04:13:24;20.90;99.90
10411;DHT22;5251;52.112;8.606;2023-09-18T04:15:50;21.00;99.90
10411;DHT22;5251;52.112;8.606;2023-09-18T04:18:17;21.00;99.90
10411;DHT22;5251;52.112;8.606;2023-09-18T04:20:42;21.10;99.90
10411;DHT22;5251;52.112;8.606;2023-09-18T04:23:20;21.10;99.90
10411;DHT22;5251;52.112;8.606;2023-09-18T04:25:46;21.20;99.90
10411;DHT22;5251;52.112;8.606;2023-09-18T04:28:12;21.20;99.90
10411;DHT22;5251;52.112;8.606;2023-09-18T04:30:38;21.30;99.90
10411;DHT22;5251;52.112;8.606;2023-09-18T04:33:04;21.30;99.90
10411;DHT22;5251;52.112;8.606;2023-09-18T04:35:29;21.40;99.90
10411;DHT22;5251;52.112;8.606;2023-09-18T04:37:59;21.40;99.90
10411;DHT22;5251;52.112;8.606;2023-09-18T04:40:25;21.40;99.90
10411;DHT22;5251;52.112;8.606;2023-09-18T04:42:52;21.40;99.90
10411;DHT22;5251;52.112;8.606;2023-09-18T04:45:18;21.50;99.90
10411;DHT22;5251;52.112;8.606;2023-09-18T04:47:43;21.50;99.90
10411;DHT22;5251;52.112;8.606;2023-09-18T04:50:10;21.50;99.90
10411;DHT22;5251;52.112;8.606;2023-09-18T04:52:36;21.50;99.90
10411;DHT22;5251;52.112;8.606;2023-09-18T04:55:02;21.50;99.90
10411;DHT22;5251;52.112;8.606;2023-09-18T04:57:28;21.50;99.90
10411;DHT22;5251;52.112;8.606;2023-09-18T04:59:54;21.50;99.90
10411;DHT22;5251;52.112;8.606;2023-09-18T05:02:19;21.50;99.90
10411;DHT22;5251;52.112;8.606;2023-09-18T05:04:45;21.50;99.90
10411;DHT22;5251;52.112;8.606;2023-09-18T05:07:10;21.50;99.90
10411;DHT22;5251;52.112;8.606;2023-09-18T05:09:36;21.60;99.90
10411;DHT22;5251;52.112;8.606;2023-09-18T05:12:04;21.60;99.90
10411;DHT22;5251;52.112;8.606;2023-09-18T05:14:30;21.60;99.90
10411;DHT22;5251;52.112;8.606;2023-09-18T05:16:55;21.60;99.90
10411;DHT22;5251;52.112;8.606;2023-09-18T05:19:21;21.60;99.90
10411;DHT22;5251;52.112;8.606;2023-09-18T05:21:47;21.70;99.90
10411;DHT22;5251;52.112;8.606;2023-09-18T05:24:13;21.70;99.90
10411;DHT22;5251;52.112;8.606;2023-09-18T05:26:39;21.70;99.90
10411;DHT22;5251;52.112;8.606;2023-09-18T05:29:04;21.70;99.90
10411;DHT22;5251;52.112;8.606;2023-09-18T05:31:30;21.70;99.90
10411;DHT22;5251;52.112;8.606;2023-09-18T05:33:56;21.80;99.90
10411;DHT22;5251;52.112;8.606;2023-09-18T05:36:21;21.80;99.90
10411;DHT22;5251;52.112;8.606;2023-09-18T05:38:47;21.80;99.90
10411;DHT22;5251;52.112;8.606;2023-09-18T05:41:12;21.80;99.90
10411;DHT22;5251;52.112;8.606;2023-09-18T05:43:38;21.90;99.90
10411;DHT22;5251;52.112;8.606;2023-09-18T05:46:03;21.90;99.90
10411;DHT22;5251;52.112;8.606;2023-09-18T05:48:29;21.90;99.90
10411;DHT22;5251;52.112;8.606;2023-09-18T05:50:55;21.90;99.90
10411;DHT22;5251;52.112;8.606;2023-09-18T05:53:20;22.00;99.90
10411;DHT22;5251;52.112;8.606;2023-09-18T05:55:47;21.90;99.90
10411;DHT22;5251;52.112;8.606;2023-09-18T05:58:12;22.00;99.90
10411;DHT22;5251;52.112;8.606;2023-09-18T06:00:39;22.00;99.90
10411;DHT22;5251;52.112;8.606;2023-09-18T06:03:05;22.00;99.90
10411;DHT22;5251;52.112;8.606;2023-09-18T06:05:31;22.10;99.90
10411;DHT22;5251;52.112;8.606;2023-09-18T06:07:59;22.10;99.90
10411;DHT22;5251;52.112;8.606;2023-09-18T06:10:25;22.10;99.90
10411;DHT22;5251;52.112;8.606;2023-09-18T06:12:50;22.10;99.90
10411;DHT22;5251;52.112;8.606;2023-09-18T06:15:16;22.20;99.90
10411;DHT22;5251;52.112;8.606;2023-09-18T06:17:43;22.20;99.90
10411;DHT22;5251;52.112;8.606;2023-09-18T06:20:10;22.20;99.90
10411;DHT22;5251;52.112;8.606;2023-09-18T06:22:39;22.20;99.90
10411;DHT22;5251;52.112;8.606;2023-09-18T06:25:06;22.30;99.90
10411;DHT22;5251;52.112;8.606;2023-09-18T06:27:36;22.30;99.90
10411;DHT22;5251;52.112;8.606;2023-09-18T06:30:03;22.30;99.90
10411;DHT22;5251;52.112;8.606;2023-09-18T06:32:29;22.40;99.90
10411;DHT22;5251;52.112;8.606;2023-09-18T06:34:55;22.40;99.90
10411;DHT22;5251;52.112;8.606;2023-09-18T06:37:23;22.40;99.90
10411;DHT22;5251;52.112;8.606;2023-09-18T06:39:48;22.40;99.90
10411;DHT22;5251;52.112;8.606;2023-09-18T06:42:14;22.40;99.90
10411;DHT22;5251;52.112;8.606;2023-09-18T06:44:39;22.50;99.90
10411;DHT22;5251;52.112;8.606;2023-09-18T06:47:05;22.50;99.90
10411;DHT22;5251;52.112;8.606;2023-09-18T06:49:30;22.60;99.90
10411;DHT22;5251;52.112;8.606;2023-09-18T06:51:56;22.60;99.90
10411;DHT22;5251;52.112;8.606;2023-09-18T06:54:22;22.60;99.90
10411;DHT22;5251;52.112;8.606;2023-09-18T06:56:47;22.70;99.90
10411;DHT22;5251;52.112;8.606;2023-09-18T06:59:13;22.80;99.90
10411;DHT22;5251;52.112;8.606;2023-09-18T07:01:40;22.80;99.90
10411;DHT22;5251;52.112;8.606;2023-09-18T07:04:06;22.80;99.90
10411;DHT22;5251;52.112;8.606;2023-09-18T07:06:32;22.90;99.90
10411;DHT22;5251;52.112;8.606;2023-09-18T07:08:57;23.00;99.90
10411;DHT22;5251;52.112;8.606;2023-09-18T07:11:23;23.00;99.90
10411;DHT22;5251;52.112;8.606;2023-09-18T07:13:48;23.10;99.90
10411;DHT22;5251;52.112;8.606;2023-09-18T07:16:14;23.20;99.90
10411;DHT22;5251;52.112;8.606;2023-09-18T07:18:40;23.30;99.90
10411;DHT22;5251;52.112;8.606;2023-09-18T07:21:05;23.40;99.90
10411;DHT22;5251;52.112;8.606;2023-09-18T07:23:31;23.50;99.90
10411;DHT22;5251;52.112;8.606;2023-09-18T07:25:56;23.60;99.90
10411;DHT22;5251;52.112;8.606;2023-09-18T07:28:24;23.70;99.90
10411;DHT22;5251;52.112;8.606;2023-09-18T07:30:50;23.80;99.90
10411;DHT22;5251;52.112;8.606;2023-09-18T07:33:15;23.90;99.90
10411;DHT22;5251;52.112;8.606;2023-09-18T07:35:48;24.00;99.90
10411;DHT22;5251;52.112;8.606;2023-09-18T07:38:14;24.10;99.90
10411;DHT22;5251;52.112;8.606;2023-09-18T07:40:40;24.30;99.90
10411;DHT22;5251;52.112;8.606;2023-09-18T07:43:06;24.40;99.90
10411;DHT22;5251;52.112;8.606;2023-09-18T07:45:31;24.50;99.90
10411;DHT22;5251;52.112;8.606;2023-09-18T07:47:57;24.70;99.90
10411;DHT22;5251;52.112;8.606;2023-09-18T07:50:23;24.90;99.90
10411;DHT22;5251;52.112;8.606;2023-09-18T07:52:48;25.00;99.90
10411;DHT22;5251;52.112;8.606;2023-09-18T07:55:14;25.10;99.90
10411;DHT22;5251;52.112;8.606;2023-09-18T07:57:40;25.20;99.90
10411;DHT22;5251;52.112;8.606;2023-09-18T08:00:06;25.30;99.90
10411;DHT22;5251;52.112;8.606;2023-09-18T08:02:38;25.40;99.90
10411;DHT22;5251;52.112;8.606;2023-09-18T08:05:05;25.50;99.90
10411;DHT22;5251;52.112;8.606;2023-09-18T08:07:31;25.60;99.90
10411;DHT22;5251;52.112;8.606;2023-09-18T08:09:57;25.60;99.90
10411;DHT22;5251;52.112;8.606;2023-09-18T08:12:24;25.70;99.90
10411;DHT22;5251;52.112;8.606;2023-09-18T08:14:49;25.70;99.90
10411;DHT22;5251;52.112;8.606;2023-09-18T08:17:15;25.70;99.90
10411;DHT22;5251;52.112;8.606;2023-09-18T08:19:41;25.80;99.90
10411;DHT22;5251;52.112;8.606;2023-09-18T08:22:09;25.80;99.90
10411;DHT22;5251;52.112;8.606;2023-09-18T08:24:37;25.80;99.90
10411;DHT22;5251;52.112;8.606;2023-09-18T08:27:02;25.80;99.90
10411;DHT22;5251;52.112;8.606;2023-09-18T08:29:28;25.80;99.90
10411;DHT22;5251;52.112;8.606;2023-09-18T08:31:54;25.80;99.90
10411;DHT22;5251;52.112;8.606;2023-09-18T08:34:20;25.80;99.90
10411;DHT22;5251;52.112;8.606;2023-09-18T08:36:45;25.80;99.90
10411;DHT22;5251;52.112;8.606;2023-09-18T08:39:11;25.80;99.90
10411;DHT22;5251;52.112;8.606;2023-09-18T08:41:40;25.70;99.90
10411;DHT22;5251;52.112;8.606;2023-09-18T08:44:07;25.70;99.90
10411;DHT22;5251;52.112;8.606;2023-09-18T08:46:34;25.70;99.90
10411;DHT22;5251;52.112;8.606;2023-09-18T08:49:00;25.60;99.90
10411;DHT22;5251;52.112;8.606;2023-09-18T08:51:27;25.60;99.90
10411;DHT22;5251;52.112;8.606;2023-09-18T08:53:54;25.50;99.90
10411;DHT22;5251;52.112;8.606;2023-09-18T08:56:21;25.50;99.90
10411;DHT22;5251;52.112;8.606;2023-09-18T08:58:47;25.50;99.90
10411;DHT22;5251;52.112;8.606;2023-09-18T09:01:12;25.40;99.90
10411;DHT22;5251;52.112;8.606;2023-09-18T09:03:40;25.40;99.90
10411;DHT22;5251;52.112;8.606;2023-09-18T09:06:08;25.40;99.90
10411;DHT22;5251;52.112;8.606;2023-09-18T09:08:35;25.40;99.90
10411;DHT22;5251;52.112;8.606;2023-09-18T09:11:01;25.30;99.90
10411;DHT22;5251;52.112;8.606;2023-09-18T09:13:27;25.30;99.90
10411;DHT22;5251;52.112;8.606;2023-09-18T09:15:55;25.40;99.90
10411;DHT22;5251;52.112;8.606;2023-09-18T09:18:25;25.40;99.90
10411;DHT22;5251;52.112;8.606;2023-09-18T09:21:03;25.50;99.90
10411;DHT22;5251;52.112;8.606;2023-09-18T09:23:45;25.60;99.90
10411;DHT22;5251;52.112;8.606;2023-09-18T09:26:18;25.60;99.90
10411;DHT22;5251;52.112;8.606;2023-09-18T09:28:45;25.60;99.90
10411;DHT22;5251;52.112;8.606;2023-09-18T09:31:11;25.70;99.90
10411;DHT22;5251;52.112;8.606;2023-09-18T09:33:51;25.80;99.90
10411;DHT22;5251;52.112;8.606;2023-09-18T09:36:19;25.90;99.90
10411;DHT22;5251;52.112;8.606;2023-09-18T09:38:45;26.00;99.90
10411;DHT22;5251;52.112;8.606;2023-09-18T09:41:14;26.10;99.90
10411;DHT22;5251;52.112;8.606;2023-09-18T09:43:42;26.20;99.90
10411;DHT22;5251;52.112;8.606;2023-09-18T09:46:15;26.30;99.90
10411;DHT22;5251;52.112;8.606;2023-09-18T09:49:00;26.30;99.90
10411;DHT22;5251;52.112;8.606;2023-09-18T09:51:27;26.40;99.90
10411;DHT22;5251;52.112;8.606;2023-09-18T09:53:54;26.50;99.90
10411;DHT22;5251;52.112;8.606;2023-09-18T09:56:19;26.50;99.90
10411;DHT22;5251;52.112;8.606;2023-09-18T09:59:06;26.60;99.90
10411;DHT22;5251;52.112;8.606;2023-09-18T10:01:35;26.70;99.90
10411;DHT22;5251;52.112;8.606;2023-09-18T10:04:13;26.70;99.90
10411;DHT22;5251;52.112;8.606;2023-09-18T10:06:43;26.80;99.90
10411;DHT22;5251;52.112;8.606;2023-09-18T10:09:11;26.90;99.90
10411;DHT22;5251;52.112;8.606;2023-09-18T10:11:41;26.90;99.90
10411;DHT22;5251;52.112;8.606;2023-09-18T10:14:20;26.90;99.90
10411;DHT22;5251;52.112;8.606;2023-09-18T10:16:54;26.90;99.90
10411;DHT22;5251;52.112;8.606;2023-09-18T10:22:15;27.00;99.90
10411;DHT22;5251;52.112;8.606;2023-09-18T10:24:46;27.10;99.90
10411;DHT22;5251;52.112;8.606;2023-09-18T10:27:15;27.10;99.90
10411;DHT22;5251;52.112;8.606;2023-09-18T10:29:43;27.10;99.80
10411;DHT22;5251;52.112;8.606;2023-09-18T10:32:10;27.20;99.90
10411;DHT22;5251;52.112;8.606;2023-09-18T10:34:36;27.30;99.70
10411;DHT22;5251;52.112;8.606;2023-09-18T10:37:04;27.30;99.60
10411;DHT22;5251;52.112;8.606;2023-09-18T10:39:37;27.40;99.20
10411;DHT22;5251;52.112;8.606;2023-09-18T10:42:07;27.40;99.10
10411;DHT22;5251;52.112;8.606;2023-09-18T10:44:33;27.50;99.00
10411;DHT22;5251;52.112;8.606;2023-09-18T10:47:01;27.50;98.90
10411;DHT22;5251;52.112;8.606;2023-09-18T10:49:28;27.50;98.90
10411;DHT22;5251;52.112;8.606;2023-09-18T10:51:55;27.50;98.10
10411;DHT22;5251;52.112;8.606;2023-09-18T10:54:23;27.50;98.50
10411;DHT22;5251;52.112;8.606;2023-09-18T10:56:50;27.60;97.90
10411;DHT22;5251;52.112;8.606;2023-09-18T10:59:16;27.60;98.10
10411;DHT22;5251;52.112;8.606;2023-09-18T11:01:43;27.70;98.20
10411;DHT22;5251;52.112;8.606;2023-09-18T11:04:10;27.70;97.90
10411;DHT22;5251;52.112;8.606;2023-09-18T11:09:25;27.80;97.80
10411;DHT22;5251;52.112;8.606;2023-09-18T11:12:41;27.90;97.20
10411;DHT22;5251;52.112;8.606;2023-09-18T11:17:31;27.90;96.50
10411;DHT22;5251;52.112;8.606;2023-09-18T11:22:38;27.90;96.50
10411;DHT22;5251;52.112;8.606;2023-09-18T11:28:00;27.80;96.20
10411;DHT22;5251;52.112;8.606;2023-09-18T11:30:27;27.80;96.20
10411;DHT22;5251;52.112;8.606;2023-09-18T11:32:54;27.80;96.10
10411;DHT22;5251;52.112;8.606;2023-09-18T11:35:21;27.80;96.40
10411;DHT22;5251;52.112;8.606;2023-09-18T11:37:47;27.80;96.50
10411;DHT22;5251;52.112;8.606;2023-09-18T11:40:33;27.80;96.60
10411;DHT22;5251;52.112;8.606;2023-09-18T11:45:59;27.80;97.00
10411;DHT22;5251;52.112;8.606;2023-09-18T11:48:27;27.90;96.20
10411;DHT22;5251;52.112;8.606;2023-09-18T11:50:56;27.90;96.10
10411;DHT22;5251;52.112;8.606;2023-09-18T11:53:24;27.90;96.50
10411;DHT22;5251;52.112;8.606;2023-09-18T11:55:50;28.00;96.80
10411;DHT22;5251;52.112;8.606;2023-09-18T11:58:15;28.00;97.00
10411;DHT22;5251;52.112;8.606;2023-09-18T12:00:41;28.10;96.70
10411;DHT22;5251;52.112;8.606;2023-09-18T12:03:17;28.00;96.70
10411;DHT22;5251;52.112;8.606;2023-09-18T12:05:52;28.10;96.60
10411;DHT22;5251;52.112;8.606;2023-09-18T12:08:18;28.00;96.50
10411;DHT22;5251;52.112;8.606;2023-09-18T12:10:44;28.00;96.70
10411;DHT22;5251;52.112;8.606;2023-09-18T12:13:09;28.00;96.20
10411;DHT22;5251;52.112;8.606;2023-09-18T12:15:37;27.90;95.60
10411;DHT22;5251;52.112;8.606;2023-09-18T12:18:06;27.80;96.10
10411;DHT22;5251;52.112;8.606;2023-09-18T12:20:32;27.80;95.90
10411;DHT22;5251;52.112;8.606;2023-09-18T12:22:59;27.70;96.10
10411;DHT22;5251;52.112;8.606;2023-09-18T12:25:25;27.70;95.80
10411;DHT22;5251;52.112;8.606;2023-09-18T12:27:52;27.70;96.10
10411;DHT22;5251;52.112;8.606;2023-09-18T12:30:19;27.70;96.30
10411;DHT22;5251;52.112;8.606;2023-09-18T12:32:46;27.60;96.00
10411;DHT22;5251;52.112;8.606;2023-09-18T12:35:13;27.60;96.40
10411;DHT22;5251;52.112;8.606;2023-09-18T12:37:40;27.70;96.40
10411;DHT22;5251;52.112;8.606;2023-09-18T12:40:07;27.70;96.70
10411;DHT22;5251;52.112;8.606;2023-09-18T12:42:46;27.80;96.20
10411;DHT22;5251;52.112;8.606;2023-09-18T12:45:12;27.80;96.10
10411;DHT22;5251;52.112;8.606;2023-09-18T12:47:38;27.90;95.90
10411;DHT22;5251;52.112;8.606;2023-09-18T12:50:05;27.90;96.10
10411;DHT22;5251;52.112;8.606;2023-09-18T12:52:36;28.00;96.10
10411;DHT22;5251;52.112;8.606;2023-09-18T12:55:02;28.00;96.10
10411;DHT22;5251;52.112;8.606;2023-09-18T12:57:32;28.10;96.50
10411;DHT22;5251;52.112;8.606;2023-09-18T12:59:58;28.20;96.00
10411;DHT22;5251;52.112;8.606;2023-09-18T13:02:24;28.20;95.10
10411;DHT22;5251;52.112;8.606;2023-09-18T13:04:54;28.40;95.70
10411;DHT22;5251;52.112;8.606;2023-09-18T13:07:21;28.40;96.10
10411;DHT22;5251;52.112;8.606;2023-09-18T13:10:04;28.50;96.40
10411;DHT22;5251;52.112;8.606;2023-09-18T13:12:47;28.60;95.90
10411;DHT22;5251;52.112;8.606;2023-09-18T13:15:28;28.70;94.70
10411;DHT22;5251;52.112;8.606;2023-09-18T13:17:56;28.70;93.80
10411;DHT22;5251;52.112;8.606;2023-09-18T13:20:26;28.70;93.30
10411;DHT22;5251;52.112;8.606;2023-09-18T13:22:55;28.60;92.50
10411;DHT22;5251;52.112;8.606;2023-09-18T13:25:28;28.50;92.90
10411;DHT22;5251;52.112;8.606;2023-09-18T13:27:54;28.30;93.00
10411;DHT22;5251;52.112;8.606;2023-09-18T13:30:21;28.10;92.80
10411;DHT22;5251;52.112;8.606;2023-09-18T13:32:49;28.00;92.90
10411;DHT22;5251;52.112;8.606;2023-09-18T13:35:18;27.90;93.90
10411;DHT22;5251;52.112;8.606;2023-09-18T13:37:44;27.80;94.00
10411;DHT22;5251;52.112;8.606;2023-09-18T13:40:11;27.80;93.70
10411;DHT22;5251;52.112;8.606;2023-09-18T13:42:38;27.70;93.20
10411;DHT22;5251;52.112;8.606;2023-09-18T13:45:05;27.70;93.50
10411;DHT22;5251;52.112;8.606;2023-09-18T13:47:33;27.70;94.10
10411;DHT22;5251;52.112;8.606;2023-09-18T13:50:00;27.70;94.40
10411;DHT22;5251;52.112;8.606;2023-09-18T13:52:29;27.70;94.50
10411;DHT22;5251;52.112;8.606;2023-09-18T13:54:55;27.70;94.60
10411;DHT22;5251;52.112;8.606;2023-09-18T13:57:21;27.70;95.00
10411;DHT22;5251;52.112;8.606;2023-09-18T13:59:48;27.70;94.30
10411;DHT22;5251;52.112;8.606;2023-09-18T14:02:15;27.80;94.90
10411;DHT22;5251;52.112;8.606;2023-09-18T14:04:41;27.80;94.80
10411;DHT22;5251;52.112;8.606;2023-09-18T14:07:08;27.90;95.20
10411;DHT22;5251;52.112;8.606;2023-09-18T14:09:34;27.90;95.10
10411;DHT22;5251;52.112;8.606;2023-09-18T14:12:00;28.00;94.10
10411;DHT22;5251;52.112;8.606;2023-09-18T14:14:26;28.00;93.90
10411;DHT22;5251;52.112;8.606;2023-09-18T14:16:52;28.00;93.50
10411;DHT22;5251;52.112;8.606;2023-09-18T14:19:19;28.00;93.30
10411;DHT22;5251;52.112;8.606;2023-09-18T14:21:45;28.00;93.50
10411;DHT22;5251;52.112;8.606;2023-09-18T14:24:10;27.90;93.40
10411;DHT22;5251;52.112;8.606;2023-09-18T14:26:36;27.90;93.30
10411;DHT22;5251;52.112;8.606;2023-09-18T14:29:09;27.80;93.10
10411;DHT22;5251;52.112;8.606;2023-09-18T14:31:38;27.80;93.00
10411;DHT22;5251;52.112;8.606;2023-09-18T14:34:04;27.70;92.70
10411;DHT22;5251;52.112;8.606;2023-09-18T14:36:31;27.60;92.50
10411;DHT22;5251;52.112;8.606;2023-09-18T14:39:01;27.50;92.40
10411;DHT22;5251;52.112;8.606;2023-09-18T14:41:27;27.40;92.70
10411;DHT22;5251;52.112;8.606;2023-09-18T14:43:53;27.40;93.40
10411;DHT22;5251;52.112;8.606;2023-09-18T14:46:19;27.20;94.60
10411;DHT22;5251;52.112;8.606;2023-09-18T14:48:45;27.10;95.00
10411;DHT22;5251;52.112;8.606;2023-09-18T14:51:11;27.00;95.50
10411;DHT22;5251;52.112;8.606;2023-09-18T14:53:37;26.90;96.50
10411;DHT22;5251;52.112;8.606;2023-09-18T14:56:03;26.90;97.20
10411;DHT22;5251;52.112;8.606;2023-09-18T14:58:29;26.80;97.90
10411;DHT22;5251;52.112;8.606;2023-09-18T15:00:56;26.90;98.10
10411;DHT22;5251;52.112;8.606;2023-09-18T15:03:21;26.90;98.20
10411;DHT22;5251;52.112;8.606;2023-09-18T15:05:50;27.00;98.50
10411;DHT22;5251;52.112;8.606;2023-09-18T15:08:16;27.00;97.50
10411;DHT22;5251;52.112;8.606;2023-09-18T15:10:43;27.00;97.50
10411;DHT22;5251;52.112;8.606;2023-09-18T15:13:09;27.10;96.50
10411;DHT22;5251;52.112;8.606;2023-09-18T15:15:34;27.10;96.20
10411;DHT22;5251;52.112;8.606;2023-09-18T15:18:01;27.10;95.80
10411;DHT22;5251;52.112;8.606;2023-09-18T15:20:27;27.10;96.10
10411;DHT22;5251;52.112;8.606;2023-09-18T15:22:52;27.10;95.80
10411;DHT22;5251;52.112;8.606;2023-09-18T15:25:21;27.10;95.90
10411;DHT22;5251;52.112;8.606;2023-09-18T15:27:47;27.00;95.90
10411;DHT22;5251;52.112;8.606;2023-09-18T15:30:13;27.00;95.70
10411;DHT22;5251;52.112;8.606;2023-09-18T15:32:49;27.00;95.70
10411;DHT22;5251;52.112;8.606;2023-09-18T15:35:19;27.00;96.20
10411;DHT22;5251;52.112;8.606;2023-09-18T15:37:45;26.90;95.80
10411;DHT22;5251;52.112;8.606;2023-09-18T15:40:11;26.90;95.80
10411;DHT22;5251;52.112;8.606;2023-09-18T15:42:39;26.90;95.70
10411;DHT22;5251;52.112;8.606;2023-09-18T15:45:09;26.80;95.80
10411;DHT22;5251;52.112;8.606;2023-09-18T15:47:37;26.80;95.80
10411;DHT22;5251;52.112;8.606;2023-09-18T15:50:03;26.80;96.20
10411;DHT22;5251;52.112;8.606;2023-09-18T15:52:30;26.80;96.00
10411;DHT22;5251;52.112;8.606;2023-09-18T15:54:56;26.70;96.60
10411;DHT22;5251;52.112;8.606;2023-09-18T15:57:21;26.70;96.20
10411;DHT22;5251;52.112;8.606;2023-09-18T15:59:47;26.70;95.80
10411;DHT22;5251;52.112;8.606;2023-09-18T16:02:13;26.70;96.40
10411;DHT22;5251;52.112;8.606;2023-09-18T16:04:39;26.60;96.10